createdAt,value
2023-04-22T00:01:33.767Z,11.75
2023-04-22T00:04:01.080Z,11.87
2023-04-22T00:06:28.615Z,11.83
2023-04-22T00:08:55.853Z,11.74
2023-04-22T00:11:22.923Z,11.65
2023-04-22T00:13:50.004Z,11.58
2023-04-22T00:16:17.165Z,11.67
2023-04-22T00:18:44.297Z,11.42
2023-04-22T00:21:11.564Z,11.54
2023-04-22T00:23:38.658Z,11.65
2023-04-22T00:26:05.906Z,11.31
2023-04-22T00:28:33.468Z,11.22
2023-04-22T00:31:03.167Z,11.14
2023-04-22T00:33:31.212Z,11.32
2023-04-22T00:35:58.307Z,11.71
2023-04-22T00:38:25.372Z,11.82
2023-04-22T00:40:52.472Z,12.02
2023-04-22T00:43:19.505Z,11.78
2023-04-22T00:45:47.412Z,11.91
2023-04-22T00:48:14.588Z,11.83
2023-04-22T00:50:41.884Z,11.45
2023-04-22T00:53:08.982Z,11.30
2023-04-22T00:55:36.202Z,11.14
2023-04-22T00:58:04.396Z,11.05
2023-04-22T01:00:31.669Z,11.25
2023-04-22T01:02:59.023Z,11.17
2023-04-22T01:05:26.997Z,11.41
2023-04-22T01:07:54.375Z,11.30
2023-04-22T01:10:21.630Z,11.52
2023-04-22T01:12:48.684Z,11.61
2023-04-22T01:15:15.880Z,11.52
2023-04-22T01:17:43.088Z,11.53
2023-04-22T01:20:12.070Z,11.92
2023-04-22T01:22:45.361Z,11.55
2023-04-22T01:25:12.911Z,11.40
2023-04-22T01:27:40.849Z,11.16
2023-04-22T01:30:09.565Z,11.13
2023-04-22T01:32:36.919Z,11.00
2023-04-22T01:35:04.690Z,11.32
2023-04-22T01:37:31.928Z,11.13
2023-04-22T01:39:59.881Z,11.33
2023-04-22T01:42:27.012Z,11.36
2023-04-22T01:44:54.196Z,11.20
2023-04-22T01:47:21.319Z,11.00
2023-04-22T01:49:48.376Z,10.70
2023-04-22T01:52:16.139Z,10.94
2023-04-22T01:54:43.188Z,10.82
2023-04-22T01:57:14.070Z,10.93
2023-04-22T01:59:41.774Z,10.75
2023-04-22T02:02:09.248Z,10.89
2023-04-22T02:04:36.492Z,10.62
2023-04-22T02:07:03.658Z,10.45
2023-04-22T02:09:33.278Z,10.66
2023-04-22T02:12:01.285Z,10.23
2023-04-22T02:14:28.356Z,10.59
2023-04-22T02:16:55.405Z,10.62
2023-04-22T02:19:22.912Z,10.96
2023-04-22T02:21:50.590Z,11.87
2023-04-22T02:24:17.666Z,10.34
2023-04-22T02:26:44.694Z,10.32
2023-04-22T02:29:11.763Z,10.57
2023-04-22T02:31:39.173Z,10.55
2023-04-22T02:34:06.205Z,10.78
2023-04-22T02:36:34.777Z,9.91
2023-04-22T02:39:05.973Z,10.12
2023-04-22T02:41:33.055Z,10.60
2023-04-22T02:44:00.187Z,11.31
2023-04-22T02:46:27.337Z,10.88
2023-04-22T02:48:54.567Z,11.29
2023-04-22T02:51:21.928Z,11.47
2023-04-22T02:53:49.001Z,10.95
2023-04-22T02:56:16.057Z,10.86
2023-04-22T02:58:43.128Z,10.62
2023-04-22T03:01:10.310Z,10.53
2023-04-22T03:03:37.665Z,11.13
2023-04-22T03:06:05.095Z,11.46
2023-04-22T03:08:34.263Z,11.28
2023-04-22T03:11:01.348Z,11.12
2023-04-22T03:13:28.455Z,10.28
2023-04-22T03:15:55.473Z,10.48
2023-04-22T03:18:22.591Z,9.80
2023-04-22T03:20:50.227Z,10.06
2023-04-22T03:23:17.324Z,9.43
2023-04-22T03:25:44.418Z,10.05
2023-04-22T03:28:11.550Z,10.28
2023-04-22T03:30:38.640Z,10.48
2023-04-22T03:33:05.707Z,10.84
2023-04-22T03:35:32.798Z,11.08
2023-04-22T03:37:59.836Z,11.09
2023-04-22T03:40:26.884Z,10.93
2023-04-22T03:42:53.997Z,10.50
2023-04-22T03:45:21.412Z,11.09
2023-04-22T03:47:48.506Z,11.46
2023-04-22T03:50:15.623Z,11.09
2023-04-22T03:52:42.628Z,10.50
2023-04-22T03:55:10.174Z,10.35
2023-04-22T03:57:37.235Z,10.86
2023-04-22T04:00:05.583Z,10.95
2023-04-22T04:02:32.875Z,11.17
2023-04-22T04:05:00.750Z,11.41
2023-04-22T04:07:28.325Z,11.49
2023-04-22T04:09:57.411Z,11.67
2023-04-22T04:12:24.505Z,11.60
2023-04-22T04:14:51.540Z,11.70
2023-04-22T04:17:18.658Z,11.82
2023-04-22T04:19:45.740Z,11.86
2023-04-22T04:22:13.430Z,11.96
2023-04-22T04:24:41.858Z,12.03
2023-04-22T04:27:09.489Z,12.05
2023-04-22T04:29:41.545Z,12.04
2023-04-22T04:32:09.835Z,12.11
2023-04-22T04:34:40.268Z,12.06
2023-04-22T04:37:07.358Z,11.91
2023-04-22T04:39:34.458Z,10.68
2023-04-22T04:42:01.495Z,9.83
2023-04-22T04:44:31.743Z,9.27
2023-04-22T04:46:59.018Z,9.54
2023-04-22T04:49:26.790Z,9.73
2023-04-22T04:51:55.931Z,10.55
2023-04-22T04:54:23.150Z,11.00
2023-04-22T04:56:50.529Z,11.53
2023-04-22T04:59:17.854Z,11.72
2023-04-22T05:01:45.465Z,12.24
2023-04-22T05:04:12.879Z,12.57
2023-04-22T05:06:40.193Z,11.30
2023-04-22T05:09:07.929Z,10.54
2023-04-22T05:11:35.344Z,10.61
2023-04-22T05:14:03.428Z,11.21
2023-04-22T05:16:30.665Z,11.86
2023-04-22T05:18:57.919Z,12.20
2023-04-22T05:21:25.087Z,12.02
2023-04-22T05:23:52.220Z,11.54
2023-04-22T05:26:19.409Z,12.49
2023-04-22T05:28:46.493Z,12.49
2023-04-22T05:31:13.599Z,12.57
2023-04-22T05:33:40.710Z,12.88
2023-04-22T05:36:08.012Z,12.48
2023-04-22T05:38:35.132Z,12.33
2023-04-22T05:41:02.414Z,12.33
2023-04-22T05:43:29.452Z,12.55
2023-04-22T05:45:57.143Z,12.68
2023-04-22T05:48:24.253Z,13.01
2023-04-22T05:50:51.483Z,13.23
2023-04-22T05:53:18.700Z,13.67
2023-04-22T05:55:45.922Z,13.86
2023-04-22T05:58:13.046Z,13.83
2023-04-22T06:00:40.155Z,14.33
2023-04-22T06:03:07.706Z,14.32
2023-04-22T06:05:35.313Z,13.85
2023-04-22T06:08:02.373Z,13.80
2023-04-22T06:10:29.558Z,14.10
2023-04-22T06:12:56.700Z,14.69
2023-04-22T06:15:26.077Z,15.22
2023-04-22T06:17:54.565Z,14.99
2023-04-22T06:20:23.114Z,15.31
2023-04-22T06:22:50.953Z,15.27
2023-04-22T06:25:18.201Z,15.12
2023-04-22T06:27:45.527Z,16.06
2023-04-22T06:30:13.069Z,16.17
2023-04-22T06:32:40.182Z,16.41
2023-04-22T06:35:08.310Z,16.48
2023-04-22T06:37:35.436Z,16.63
2023-04-22T06:40:03.009Z,17.03
2023-04-22T06:42:30.346Z,16.86
2023-04-22T06:44:59.875Z,16.28
2023-04-22T06:47:26.994Z,16.83
2023-04-22T06:49:54.197Z,17.04
2023-04-22T06:52:22.780Z,16.93
2023-04-22T06:54:51.123Z,17.33
2023-04-22T06:57:18.225Z,17.12
2023-04-22T06:59:46.871Z,16.42
2023-04-22T07:02:14.423Z,17.04
2023-04-22T07:04:41.820Z,16.43
2023-04-22T07:07:09.666Z,16.86
2023-04-22T07:09:36.982Z,16.67
2023-04-22T07:12:04.732Z,17.15
2023-04-22T07:14:33.018Z,17.33
2023-04-22T07:17:00.770Z,17.60
2023-04-22T07:19:33.329Z,17.35
2023-04-22T07:22:03.342Z,17.74
2023-04-22T07:24:30.862Z,18.25
2023-04-22T07:26:58.268Z,18.36
2023-04-22T07:29:25.407Z,18.68
2023-04-22T07:31:52.578Z,19.11
2023-04-22T07:34:19.743Z,19.36
2023-04-22T07:36:46.858Z,18.43
2023-04-22T07:39:13.995Z,18.45
2023-04-22T07:41:41.589Z,18.07
2023-04-22T07:44:10.432Z,19.46
2023-04-22T07:46:37.661Z,18.85
2023-04-22T07:49:04.707Z,18.38
2023-04-22T07:51:33.514Z,18.85
2023-04-22T07:54:00.631Z,18.92
2023-04-22T07:56:27.761Z,18.49
2023-04-22T07:58:54.829Z,18.79
2023-04-22T08:01:21.918Z,19.23
2023-04-22T08:03:49.148Z,18.99
2023-04-22T08:06:16.406Z,19.40
2023-04-22T08:08:44.827Z,19.42
2023-04-22T08:11:13.253Z,19.35
2023-04-22T08:13:40.477Z,20.06
2023-04-22T08:16:07.905Z,19.45
2023-04-22T08:18:36.092Z,20.18
2023-04-22T08:21:03.453Z,19.79
2023-04-22T08:23:30.572Z,20.43
2023-04-22T08:25:57.671Z,20.80
2023-04-22T08:28:25.032Z,20.97
2023-04-22T08:30:52.127Z,21.36
2023-04-22T08:33:19.211Z,20.43
2023-04-22T08:35:50.174Z,20.51
2023-04-22T08:38:17.283Z,21.26
2023-04-22T08:40:44.418Z,19.89
2023-04-22T08:43:12.336Z,20.24
2023-04-22T08:45:40.918Z,20.70
2023-04-22T08:48:11.845Z,21.91
2023-04-22T08:50:39.873Z,20.93
2023-04-22T08:53:09.160Z,20.75
2023-04-22T08:55:37.027Z,21.04
2023-04-22T08:58:06.076Z,22.19
2023-04-22T09:00:34.593Z,21.55
2023-04-22T09:03:09.148Z,22.09
2023-04-22T09:05:40.081Z,22.58
2023-04-22T09:08:08.626Z,22.65
2023-04-22T09:10:39.727Z,22.52
2023-04-22T09:13:10.543Z,22.11
2023-04-22T09:15:37.634Z,22.21
2023-04-22T09:18:05.508Z,22.11
2023-04-22T09:20:32.828Z,22.66
2023-04-22T09:23:07.582Z,23.12
2023-04-22T09:25:37.510Z,23.04
2023-04-22T09:28:04.881Z,23.22
2023-04-22T09:30:37.718Z,23.68
2023-04-22T09:33:07.517Z,23.80
2023-04-22T09:35:40.652Z,23.43
2023-04-22T09:38:11.545Z,22.55
2023-04-22T09:40:49.797Z,23.62
2023-04-22T09:43:20.734Z,23.33
2023-04-22T09:45:47.872Z,22.86
2023-04-22T09:48:19.175Z,23.27
2023-04-22T09:50:51.799Z,23.34
2023-04-22T09:53:21.793Z,23.55
2023-04-22T09:55:57.267Z,24.23
2023-04-22T09:58:27.266Z,24.30
2023-04-22T10:00:59.096Z,23.70
2023-04-22T10:03:26.645Z,23.53
2023-04-22T10:05:53.903Z,24.06
2023-04-22T10:08:20.987Z,23.44
2023-04-22T10:10:48.176Z,24.04
2023-04-22T10:13:15.705Z,24.82
2023-04-22T10:15:55.571Z,24.31
2023-04-22T10:18:29.215Z,24.87
2023-04-22T10:20:58.277Z,25.00
2023-04-22T10:23:26.077Z,23.80
2023-04-22T10:25:57.380Z,24.24
2023-04-22T10:28:30.213Z,24.73
2023-04-22T10:30:57.389Z,25.93
2023-04-22T10:33:35.100Z,26.00
2023-04-22T10:36:20.218Z,25.89
2023-04-22T10:38:56.296Z,25.95
2023-04-22T10:41:32.353Z,25.63
2023-04-22T10:44:11.191Z,25.14
2023-04-22T10:46:42.660Z,25.48
2023-04-22T10:49:15.593Z,25.98
2023-04-22T10:52:01.460Z,26.00
2023-04-22T10:54:31.505Z,25.96
2023-04-22T10:57:12.635Z,25.52
2023-04-22T10:59:52.807Z,26.12
2023-04-22T11:02:22.971Z,27.64
2023-04-22T11:04:54.369Z,26.38
2023-04-22T11:07:27.026Z,27.57
2023-04-22T11:10:05.392Z,27.21
2023-04-22T11:12:38.253Z,26.92
2023-04-22T11:15:19.862Z,26.96
2023-04-22T11:17:54.651Z,24.97
2023-04-22T11:20:22.684Z,25.79
2023-04-22T11:22:56.509Z,26.58
2023-04-22T11:25:25.896Z,27.77
2023-04-22T11:27:55.116Z,28.19
2023-04-22T11:30:25.350Z,27.61
2023-04-22T11:32:58.599Z,29.31
2023-04-22T11:35:35.765Z,28.11
2023-04-22T11:38:08.660Z,27.69
2023-04-22T11:40:46.170Z,26.67
2023-04-22T11:43:14.425Z,26.93
2023-04-22T11:45:42.446Z,27.26
2023-04-22T11:48:11.744Z,27.39
2023-04-22T11:50:46.742Z,26.76
2023-04-22T11:53:21.179Z,27.37
2023-04-22T11:55:52.130Z,27.92
2023-04-22T11:58:28.189Z,26.94
2023-04-22T12:01:00.677Z,28.69
2023-04-22T12:03:31.659Z,29.44
2023-04-22T12:06:04.688Z,29.82
2023-04-22T12:08:42.278Z,28.00
2023-04-22T12:11:12.660Z,28.66
2023-04-22T12:13:42.836Z,29.58
2023-04-22T12:16:18.563Z,30.15
2023-04-22T12:18:56.136Z,28.19
2023-04-22T12:21:30.521Z,30.21
2023-04-22T12:24:11.451Z,28.23
2023-04-22T12:26:42.851Z,28.68
2023-04-22T12:29:10.671Z,29.47
2023-04-22T12:31:38.738Z,29.89
2023-04-22T12:34:06.656Z,27.46
2023-04-22T12:36:36.950Z,27.64
2023-04-22T12:39:04.786Z,27.61
2023-04-22T12:41:34.212Z,26.92
2023-04-22T12:44:03.652Z,27.75
2023-04-22T12:46:30.978Z,27.82
2023-04-22T12:48:58.155Z,27.67
2023-04-22T12:51:25.640Z,27.49
2023-04-22T12:53:59.120Z,27.57
2023-04-22T12:56:27.747Z,29.47
2023-04-22T12:58:55.928Z,28.17
2023-04-22T13:01:26.186Z,30.09
2023-04-22T13:03:54.137Z,27.84
2023-04-22T13:06:24.344Z,28.23
2023-04-22T13:08:52.053Z,29.50
2023-04-22T13:11:19.402Z,29.71
2023-04-22T13:13:46.666Z,30.18
2023-04-22T13:16:13.840Z,30.86
2023-04-22T13:18:45.315Z,29.50
2023-04-22T13:21:14.590Z,27.33
2023-04-22T13:23:42.256Z,28.60
2023-04-22T13:26:12.866Z,29.03
2023-04-22T13:28:40.680Z,29.62
2023-04-22T13:31:07.860Z,30.25
2023-04-22T13:33:35.074Z,30.33
2023-04-22T13:36:02.230Z,31.19
2023-04-22T13:38:29.319Z,30.68
2023-04-22T13:40:56.820Z,29.46
2023-04-22T13:43:23.971Z,27.68
2023-04-22T13:45:51.378Z,27.80
2023-04-22T13:48:22.364Z,28.50
2023-04-22T13:50:58.749Z,30.13
2023-04-22T13:53:26.170Z,30.76
2023-04-22T13:55:53.421Z,30.93
2023-04-22T13:58:20.606Z,28.25
2023-04-22T14:00:47.822Z,27.29
2023-04-22T14:03:15.290Z,28.41
2023-04-22T14:05:42.798Z,27.91
2023-04-22T14:08:10.049Z,28.82
2023-04-22T14:10:37.123Z,29.36
2023-04-22T14:13:04.365Z,30.31
2023-04-22T14:15:31.472Z,30.65
2023-04-22T14:17:58.782Z,27.11
2023-04-22T14:20:28.187Z,27.51
2023-04-22T14:22:55.976Z,27.63
2023-04-22T14:25:23.434Z,27.56
2023-04-22T14:27:50.650Z,27.68
2023-04-22T14:30:19.242Z,28.39
2023-04-22T14:32:46.535Z,30.26
2023-04-22T14:35:14.054Z,31.14
2023-04-22T14:37:43.476Z,30.04
2023-04-22T14:40:12.529Z,29.71
2023-04-22T14:42:42.547Z,28.04
2023-04-22T14:45:11.780Z,28.33
2023-04-22T14:47:39.561Z,28.10
2023-04-22T14:50:08.782Z,28.02
2023-04-22T14:52:36.554Z,29.19
2023-04-22T14:55:19.511Z,27.54
2023-04-22T14:57:55.237Z,27.72
2023-04-22T15:00:23.343Z,28.67
2023-04-22T15:02:50.909Z,28.08
2023-04-22T15:05:24.095Z,29.73
2023-04-22T15:07:51.905Z,30.54
2023-04-22T15:10:19.609Z,30.45
2023-04-22T15:12:46.859Z,27.90
2023-04-22T15:15:15.860Z,28.22
2023-04-22T15:17:44.686Z,28.19
2023-04-22T15:20:13.033Z,28.88
2023-04-22T15:22:44.290Z,28.23
2023-04-22T15:25:11.701Z,27.56
2023-04-22T15:27:39.768Z,26.87
2023-04-22T15:30:08.621Z,27.11
2023-04-22T15:32:36.409Z,27.84
2023-04-22T15:35:03.844Z,28.34
2023-04-22T15:37:31.354Z,27.44
2023-04-22T15:39:59.294Z,27.73
2023-04-22T15:42:29.528Z,28.68
2023-04-22T15:44:56.650Z,26.60
2023-04-22T15:47:24.471Z,26.86
2023-04-22T15:49:51.806Z,29.51
2023-04-22T15:52:19.448Z,30.46
2023-04-22T15:54:46.803Z,29.34
2023-04-22T15:57:14.127Z,28.55
2023-04-22T15:59:41.491Z,26.82
2023-04-22T16:02:10.005Z,27.00
2023-04-22T16:04:37.235Z,26.93
2023-04-22T16:07:05.872Z,26.13
2023-04-22T16:09:33.023Z,26.20
2023-04-22T16:12:00.175Z,26.21
2023-04-22T16:14:27.586Z,26.30
2023-04-22T16:16:54.783Z,25.92
2023-04-22T16:19:23.088Z,25.96
2023-04-22T16:21:56.431Z,26.60
2023-04-22T16:24:26.929Z,26.52
2023-04-22T16:26:56.660Z,25.78
2023-04-22T16:29:24.558Z,25.58
2023-04-22T16:31:52.720Z,25.45
2023-04-22T16:34:20.857Z,25.82
2023-04-22T16:36:47.996Z,25.60
2023-04-22T16:39:15.093Z,25.96
2023-04-22T16:41:43.260Z,26.02
2023-04-22T16:44:10.864Z,25.90
2023-04-22T16:46:38.332Z,25.20
2023-04-22T16:49:08.445Z,24.53
2023-04-22T16:51:37.724Z,24.61
2023-04-22T16:54:05.565Z,24.73
2023-04-22T16:56:32.658Z,23.93
2023-04-22T16:59:00.493Z,23.81
2023-04-22T17:01:30.111Z,23.84
2023-04-22T17:03:57.527Z,23.21
2023-04-22T17:06:24.950Z,23.24
2023-04-22T17:08:52.488Z,22.94
2023-04-22T17:11:19.698Z,22.81
2023-04-22T17:13:46.890Z,22.70
2023-04-22T17:16:14.040Z,22.15
2023-04-22T17:18:41.109Z,21.79
2023-04-22T17:21:08.474Z,21.58
2023-04-22T17:23:36.887Z,21.52
2023-04-22T17:26:03.980Z,21.35
2023-04-22T17:28:31.151Z,21.08
2023-04-22T17:30:58.393Z,21.40
2023-04-22T17:33:26.489Z,21.25
2023-04-22T17:35:53.674Z,21.18
2023-04-22T17:38:20.771Z,20.61
2023-04-22T17:40:48.165Z,20.68
2023-04-22T17:43:15.347Z,20.50
2023-04-22T17:45:42.425Z,20.39
2023-04-22T17:48:11.842Z,20.39
2023-04-22T17:50:38.996Z,20.68
2023-04-22T17:53:06.294Z,20.53
2023-04-22T17:55:36.532Z,20.03
2023-04-22T17:58:04.946Z,19.55
2023-04-22T18:00:37.445Z,19.44
2023-04-22T18:03:06.022Z,19.32
2023-04-22T18:05:33.266Z,19.11
2023-04-22T18:08:04.214Z,19.33
2023-04-22T18:10:31.518Z,18.94
2023-04-22T18:12:58.671Z,18.93
2023-04-22T18:15:25.963Z,19.20
2023-04-22T18:17:53.235Z,19.10
2023-04-22T18:20:20.550Z,19.27
2023-04-22T18:22:55.469Z,18.84
2023-04-22T18:25:22.925Z,18.80
2023-04-22T18:27:54.783Z,18.51
2023-04-22T18:30:25.291Z,18.39
2023-04-22T18:32:52.568Z,18.07
2023-04-22T18:35:20.145Z,17.90
2023-04-22T18:37:47.376Z,18.05
2023-04-22T18:40:17.499Z,18.00
2023-04-22T18:42:44.987Z,18.19
2023-04-22T18:45:12.707Z,18.05
2023-04-22T18:47:39.911Z,18.21
2023-04-22T18:50:07.861Z,17.93
2023-04-22T18:52:35.106Z,17.83
2023-04-22T18:55:02.398Z,17.50
2023-04-22T18:57:29.752Z,17.49
2023-04-22T18:59:56.809Z,17.33
2023-04-22T19:02:24.023Z,17.43
2023-04-22T19:04:54.006Z,17.37
2023-04-22T19:07:21.221Z,17.71
2023-04-22T19:09:48.367Z,17.70
2023-04-22T19:12:18.911Z,17.79
2023-04-22T19:14:47.764Z,17.46
2023-04-22T19:17:15.013Z,17.21
2023-04-22T19:19:42.506Z,17.14
2023-04-22T19:22:10.335Z,17.48
2023-04-22T19:24:39.410Z,17.39
2023-04-22T19:27:12.090Z,17.37
2023-04-22T19:29:51.042Z,17.18
2023-04-22T19:32:18.835Z,17.15
2023-04-22T19:34:47.187Z,16.87
2023-04-22T19:37:17.147Z,16.94
2023-04-22T19:39:44.424Z,17.02
2023-04-22T19:42:11.512Z,17.00
2023-04-22T19:44:41.144Z,17.42
2023-04-22T19:47:08.512Z,17.25
2023-04-22T19:49:36.101Z,17.39
2023-04-22T19:52:03.502Z,17.03
2023-04-22T19:54:30.701Z,16.92
2023-04-22T19:56:58.474Z,17.04
2023-04-22T19:59:27.945Z,16.75
2023-04-22T20:01:55.457Z,16.95
2023-04-22T20:04:23.231Z,16.86
2023-04-22T20:06:53.213Z,17.24
2023-04-22T20:09:20.954Z,16.94
2023-04-22T20:11:48.645Z,16.80
2023-04-22T20:14:18.502Z,17.26
2023-04-22T20:16:47.736Z,17.80
2023-04-22T20:19:15.644Z,17.67
2023-04-22T20:21:44.155Z,17.36
2023-04-22T20:24:19.950Z,17.07
2023-04-22T20:26:47.948Z,16.89
2023-04-22T20:29:24.509Z,16.48
2023-04-22T20:31:51.825Z,16.76
2023-04-22T20:34:20.684Z,16.44
2023-04-22T20:36:50.685Z,16.43
2023-04-22T20:39:17.926Z,16.64
2023-04-22T20:41:46.332Z,16.95
2023-04-22T20:44:14.109Z,16.43
2023-04-22T20:46:43.560Z,16.60
2023-04-22T20:49:10.677Z,16.59
2023-04-22T20:51:41.431Z,16.49
2023-04-22T20:54:21.667Z,16.13
2023-04-22T20:56:55.276Z,15.68
2023-04-22T20:59:22.365Z,15.73
2023-04-22T21:01:55.639Z,16.12
2023-04-22T21:04:27.449Z,16.34
2023-04-22T21:07:00.917Z,16.02
2023-04-22T21:09:28.490Z,15.69
2023-04-22T21:11:56.107Z,15.53
2023-04-22T21:14:26.212Z,15.62
2023-04-22T21:17:14.913Z,15.68
2023-04-22T21:19:53.157Z,16.31
2023-04-22T21:22:22.107Z,16.41
2023-04-22T21:24:51.629Z,15.77
2023-04-22T21:27:21.687Z,15.79
2023-04-22T21:29:50.000Z,15.64
2023-04-22T21:32:20.199Z,15.92
2023-04-22T21:34:47.461Z,15.98
2023-04-22T21:37:15.694Z,15.71
2023-04-22T21:39:42.774Z,15.99
2023-04-22T21:42:09.874Z,16.05
2023-04-22T21:44:38.214Z,16.35
2023-04-22T21:47:06.428Z,16.74
2023-04-22T21:49:33.546Z,17.36
2023-04-22T21:52:01.041Z,17.14
2023-04-22T21:54:28.214Z,17.15
2023-04-22T21:56:56.172Z,17.01
2023-04-22T21:59:24.701Z,16.77
2023-04-22T22:01:52.429Z,16.61
2023-04-22T22:04:19.642Z,16.59
2023-04-22T22:06:46.853Z,16.73
2023-04-22T22:09:14.354Z,17.30
2023-04-22T22:11:41.485Z,17.19
2023-04-22T22:14:08.640Z,16.84
2023-04-22T22:16:36.010Z,17.04
2023-04-22T22:19:04.417Z,16.76
2023-04-22T22:21:33.182Z,16.91
2023-04-22T22:24:00.486Z,17.06
2023-04-22T22:26:29.232Z,17.03
2023-04-22T22:28:56.533Z,17.11
2023-04-22T22:31:23.797Z,17.26
2023-04-22T22:33:50.870Z,17.51
2023-04-22T22:36:19.017Z,17.47
2023-04-22T22:38:46.352Z,16.98
2023-04-22T22:41:14.016Z,16.69
2023-04-22T22:43:41.032Z,16.04
2023-04-22T22:46:08.235Z,15.69
2023-04-22T22:48:35.840Z,15.67
2023-04-22T22:51:03.385Z,15.63
2023-04-22T22:53:30.559Z,15.56
2023-04-22T22:55:57.621Z,15.40
2023-04-22T22:58:24.786Z,15.37
2023-04-22T23:00:51.858Z,15.13
2023-04-22T23:03:20.121Z,15.03
2023-04-22T23:05:47.436Z,15.35
2023-04-22T23:08:14.751Z,15.45
2023-04-22T23:10:41.851Z,15.14
2023-04-22T23:13:08.889Z,15.20
2023-04-22T23:15:36.421Z,15.18
2023-04-22T23:18:03.846Z,15.35
2023-04-22T23:20:31.389Z,15.09
2023-04-22T23:22:59.825Z,14.96
2023-04-22T23:25:27.719Z,15.14
2023-04-22T23:27:55.251Z,14.91
2023-04-22T23:30:23.338Z,14.92
2023-04-22T23:32:52.223Z,14.88
2023-04-22T23:35:20.281Z,14.76
2023-04-22T23:37:50.695Z,14.98
2023-04-22T23:40:18.017Z,14.92
2023-04-22T23:42:45.091Z,14.44
2023-04-22T23:45:12.449Z,14.46
2023-04-22T23:47:39.905Z,14.50
2023-04-22T23:50:08.372Z,14.19
2023-04-22T23:52:41.216Z,14.47
2023-04-22T23:55:11.429Z,14.19
2023-04-22T23:57:39.440Z,14.32
